Time;durP1;ratioP1;P1;durP2;ratioP2;P2;SDS_P1;SDS_P2;PMS_P1;PMS_P2;Temp;Humidity;BMP_temperature;BMP_pressure;BME280_temperature;BME280_humidity;BME280_pressure;Samples;Min_cycle;Max_cycle;Signal;HPM_P1;HPM_P2
2023/08/21 00:01:37;;;;;;;6.97;2.00;;;;;;;-146.27;85.84;81729.38;5028075;28;20622;-67
2023/08/21 00:04:02;;;;;;;5.57;1.67;;;;;;;-146.27;86.32;81717.31;5028893;28;20427;-67
2023/08/21 00:06:28;;;;;;;9.65;1.60;;;;;;;-146.27;85.75;81715.31;5024251;28;20163;-68
2023/08/21 00:08:53;;;;;;;5.75;1.77;;;;;;;-146.27;85.53;81725.34;5025378;28;20053;-68
2023/08/21 00:11:19;;;;;;;7.93;1.67;;;;;;;-146.27;85.86;81773.56;5021674;28;20095;-67
2023/08/21 00:13:44;;;;;;;7.72;1.70;;;;;;;-146.27;86.25;81733.38;5022136;28;20048;-69
2023/08/21 00:16:11;;;;;;;4.25;1.58;;;;;;;-146.27;86.67;81777.56;5022037;28;20041;-68
2023/08/21 00:18:36;;;;;;;8.00;1.90;;;;;;;-146.27;86.66;81745.44;5020611;28;20134;-68
2023/08/21 00:21:02;;;;;;;6.30;1.80;;;;;;;-146.27;86.84;81793.66;5020191;28;20769;-67
2023/08/21 00:23:27;;;;;;;3.88;1.45;;;;;;;-146.27;86.88;81759.50;5021583;28;20029;-68
2023/08/21 00:25:52;;;;;;;4.28;1.55;;;;;;;-146.27;86.97;81717.31;5025956;28;20485;-68
2023/08/21 00:28:18;;;;;;;5.57;1.70;;;;;;;-146.27;86.37;81741.41;5020502;28;20037;-67
2023/08/21 00:30:43;;;;;;;3.60;2.13;;;;;;;-146.27;86.40;81729.38;5019240;28;20025;-69
2023/08/21 00:33:08;;;;;;;6.05;1.52;;;;;;;-146.27;86.80;81777.56;5021152;28;20075;-68
2023/08/21 00:35:34;;;;;;;3.33;1.70;;;;;;;-146.27;87.00;81801.69;5020917;28;20021;-68
2023/08/21 00:37:59;;;;;;;5.22;2.30;;;;;;;-146.27;87.11;81805.69;5020549;28;20025;-67
2023/08/21 00:40:25;;;;;;;7.90;2.10;;;;;;;-146.27;87.54;81811.72;5020306;28;20127;-68
2023/08/21 00:42:50;;;;;;;3.90;1.55;;;;;;;-146.27;87.93;81833.81;5021114;28;20029;-68
2023/08/21 00:45:15;;;;;;;6.45;1.52;;;;;;;-146.27;87.76;81809.72;5026018;28;20105;-68
2023/08/21 00:47:43;;;;;;;3.78;1.48;;;;;;;-146.27;88.18;81857.91;5027903;28;20081;-66
2023/08/21 00:50:09;;;;;;;8.40;1.67;;;;;;;-146.27;88.06;81849.88;5023357;28;20029;-66
2023/08/21 00:52:35;;;;;;;6.18;1.92;;;;;;;-146.27;89.12;81851.88;5023838;28;20059;-68
2023/08/21 00:55:01;;;;;;;6.03;2.00;;;;;;;-146.27;88.71;81843.84;5020806;28;20045;-68
2023/08/21 00:57:26;;;;;;;4.05;1.50;;;;;;;-146.27;89.05;81833.81;5023419;28;20103;-68
2023/08/21 00:59:53;;;;;;;5.97;1.88;;;;;;;-146.27;88.61;81819.75;5026671;28;20117;-68
2023/08/21 01:02:19;;;;;;;4.47;1.83;;;;;;;-146.27;88.68;81845.88;5023004;28;20033;-66
2023/08/21 01:04:44;;;;;;;8.32;1.75;;;;;;;-146.27;88.70;81853.91;5026468;28;20823;-68
2023/08/21 01:07:10;;;;;;;6.35;1.80;;;;;;;-146.27;88.71;81851.88;5023259;28;20118;-68
2023/08/21 01:09:57;;;;;;;8.38;2.22;;;;;;;-146.27;88.57;81849.88;5020072;28;20025;-68
2023/08/21 01:12:29;;;;;;;4.85;2.70;;;;;;;-146.27;88.80;81867.97;5027021;28;20037;-68
2023/08/21 01:15:00;;;;;;;5.15;2.00;;;;;;;-146.27;89.04;81873.97;5023538;28;20335;-69
2023/08/21 01:17:29;;;;;;;5.97;2.08;;;;;;;-146.27;89.26;81886.03;5027294;28;20025;-69
2023/08/21 01:19:56;;;;;;;3.35;1.92;;;;;;;-146.27;89.24;81912.16;5025829;28;20025;-67
2023/08/21 01:22:35;;;;;;;4.47;1.45;;;;;;;-146.27;89.00;81894.06;5019922;28;20029;-68
2023/08/21 01:25:00;;;;;;;3.13;1.70;;;;;;;-146.27;89.96;81876.00;5033714;28;20028;-67
2023/08/21 01:27:26;;;;;;;3.72;1.63;;;;;;;-146.27;89.67;81898.09;5027009;28;20033;-66
2023/08/21 01:29:52;;;;;;;3.25;1.70;;;;;;;-146.27;90.02;81869.97;5021639;28;20017;-67
2023/08/21 01:32:20;;;;;;;10.80;2.67;;;;;;;-146.27;90.07;81853.91;5018523;28;20661;-68
2023/08/21 01:34:47;;;;;;;7.95;1.95;;;;;;;-146.27;89.64;81865.94;5021388;28;20440;-67
2023/08/21 01:37:13;;;;;;;4.70;1.63;;;;;;;-146.27;89.56;81873.97;5018734;28;20057;-68
2023/08/21 01:39:39;;;;;;;5.13;1.83;;;;;;;-146.27;89.67;81886.03;5022121;28;20029;-68
2023/08/21 01:42:04;;;;;;;5.13;1.40;;;;;;;-146.27;89.70;81914.16;5017944;28;20048;-66
2023/08/21 01:44:29;;;;;;;5.53;1.70;;;;;;;-146.27;89.39;81940.25;5020004;28;20049;-67
2023/08/21 01:46:55;;;;;;;5.40;1.80;;;;;;;-146.27;89.55;81938.25;5020737;28;20032;-67
2023/08/21 01:49:20;;;;;;;4.50;1.58;;;;;;;-146.27;89.41;81888.03;5020709;28;20397;-67
2023/08/21 01:51:46;;;;;;;6.75;2.17;;;;;;;-146.27;89.37;81932.22;5020804;28;20583;-68
2023/08/21 01:54:11;;;;;;;3.38;1.70;;;;;;;-146.27;89.91;81914.16;5019609;28;20030;-67
2023/08/21 01:56:37;;;;;;;3.10;1.40;;;;;;;-146.27;89.08;81898.09;5019206;28;20033;-66
2023/08/21 01:59:04;;;;;;;4.15;1.77;;;;;;;-146.27;89.05;81914.16;5023311;28;20017;-68
2023/08/21 02:01:30;;;;;;;6.20;1.63;;;;;;;-146.27;89.64;81916.16;5026539;28;21920;-68
2023/08/21 02:03:55;;;;;;;5.90;1.63;;;;;;;-146.27;89.78;81982.44;5026728;28;20025;-67
2023/08/21 02:06:20;;;;;;;6.35;1.88;;;;;;;-146.27;89.37;82004.53;5026322;28;20108;-69
2023/08/21 02:08:46;;;;;;;12.05;2.00;;;;;;;-146.27;89.47;81996.50;5024443;28;20133;-68
2023/08/21 02:11:11;;;;;;;9.25;2.00;;;;;;;-146.27;89.53;81988.47;5027752;28;20025;-68
2023/08/21 02:13:37;;;;;;;6.38;2.17;;;;;;;-146.27;90.09;82008.56;5025347;28;20033;-68
2023/08/21 02:16:02;;;;;;;4.07;1.80;;;;;;;-146.27;89.79;81988.47;5026511;28;20022;-68
2023/08/21 02:18:27;;;;;;;5.28;1.55;;;;;;;-146.27;89.86;81974.41;5025412;28;20041;-68
2023/08/21 02:20:53;;;;;;;4.43;1.70;;;;;;;-146.27;89.93;82010.56;5025202;28;20043;-68
2023/08/21 02:23:18;;;;;;;7.03;1.75;;;;;;;-146.27;89.82;81988.47;5023458;28;20056;-68
2023/08/21 02:25:43;;;;;;;11.52;1.83;;;;;;;-146.27;89.59;82006.53;5030948;28;20037;-68
2023/08/21 02:28:09;;;;;;;6.70;1.60;;;;;;;-146.27;89.88;82042.69;5031304;28;20018;-67
2023/08/21 02:30:34;;;;;;;5.32;1.90;;;;;;;-146.27;90.12;82014.59;5031483;28;20026;-67
2023/08/21 02:32:59;;;;;;;9.38;1.60;;;;;;;-146.27;90.10;82022.63;5022884;28;20033;-69
2023/08/21 02:35:25;;;;;;;3.75;1.67;;;;;;;-146.27;90.17;82040.69;5028095;28;20116;-67
2023/08/21 02:37:50;;;;;;;6.53;1.70;;;;;;;-146.27;90.03;82046.72;5030299;28;20018;-67
2023/08/21 02:40:16;;;;;;;4.35;1.92;;;;;;;-146.27;89.95;82046.72;5027624;28;20081;-67
2023/08/21 02:42:41;;;;;;;2.58;1.60;;;;;;;-146.27;90.31;82062.78;5029689;28;20037;-68
2023/08/21 02:45:10;;;;;;;6.07;1.70;;;;;;;-146.27;90.13;82066.81;5025718;28;20025;-68
2023/08/21 02:47:37;;;;;;;3.40;1.40;;;;;;;-146.27;90.34;82074.84;5029808;28;20495;-69
2023/08/21 02:50:04;;;;;;;6.22;1.45;;;;;;;-146.27;90.22;82082.88;5028839;28;20022;-68
2023/08/21 02:52:31;;;;;;;5.05;1.63;;;;;;;-146.27;90.17;82106.97;5020168;28;20520;-69
2023/08/21 02:54:57;;;;;;;4.22;1.58;;;;;;;-146.27;90.47;82111.00;5029918;28;20034;-69
2023/08/21 02:57:23;;;;;;;7.18;2.67;;;;;;;-146.27;90.56;82121.03;5022520;28;20060;-69
2023/08/21 02:59:48;;;;;;;14.60;4.65;;;;;;;-146.27;90.13;82058.78;5027988;28;20025;-69
2023/08/21 03:02:14;;;;;;;7.65;2.65;;;;;;;-146.27;90.32;82082.88;5028621;28;20079;-69
2023/08/21 03:04:39;;;;;;;4.47;2.20;;;;;;;-146.27;90.62;82094.94;5027415;28;20046;-69
2023/08/21 03:07:04;;;;;;;3.50;1.50;;;;;;;-146.27;90.42;82111.00;5026436;28;21366;-68
2023/08/21 03:09:30;;;;;;;3.72;1.50;;;;;;;-146.27;91.00;82127.06;5029563;28;20131;-69
2023/08/21 03:11:55;;;;;;;3.63;1.55;;;;;;;-146.27;90.32;82123.06;5030070;28;20572;-68
2023/08/21 03:14:20;;;;;;;6.28;1.88;;;;;;;-146.27;90.68;82145.16;5026220;28;20030;-68
2023/08/21 03:16:46;;;;;;;2.90;1.40;;;;;;;-146.27;90.75;82123.06;5027884;28;20025;-71
2023/08/21 03:19:11;;;;;;;4.18;1.55;;;;;;;-146.27;90.88;82159.22;5025157;28;20025;-67
2023/08/21 03:21:36;;;;;;;3.50;1.33;;;;;;;-146.27;90.69;82177.28;5026010;28;20505;-69
2023/08/21 03:24:02;;;;;;;4.72;1.88;;;;;;;-146.27;91.07;82161.22;5018709;28;20062;-68
2023/08/21 03:26:27;;;;;;;4.45;1.75;;;;;;;-146.27;90.56;82169.25;5028184;28;20096;-67
2023/08/21 03:28:53;;;;;;;8.43;2.30;;;;;;;-146.27;90.77;82183.31;5022494;28;20064;-68
2023/08/21 03:31:18;;;;;;;5.07;1.23;;;;;;;-146.27;90.89;82189.34;5023425;28;20108;-68
2023/08/21 03:33:43;;;;;;;5.97;1.48;;;;;;;-146.27;91.08;82141.13;5021343;28;20766;-70
2023/08/21 03:36:09;;;;;;;6.47;1.92;;;;;;;-146.27;91.22;82151.16;5024654;28;20021;-68
2023/08/21 03:38:34;;;;;;;5.53;1.40;;;;;;;-146.27;90.83;82171.25;5022595;28;20041;-68
2023/08/21 03:41:00;;;;;;;5.35;1.70;;;;;;;-146.27;91.12;82195.38;5024150;28;20084;-69
2023/08/21 03:43:25;;;;;;;5.60;1.63;;;;;;;-146.27;90.56;82155.19;5022311;28;20025;-68
2023/08/21 03:45:50;;;;;;;4.65;1.33;;;;;;;-146.27;90.73;82207.41;5022027;28;20389;-69
2023/08/21 03:48:16;;;;;;;9.65;2.10;;;;;;;-146.27;91.00;82185.31;5022193;28;20473;-67
2023/08/21 03:50:41;;;;;;;2.97;1.40;;;;;;;-146.27;91.02;82227.50;5020903;28;20036;-69
2023/08/21 03:53:06;;;;;;;10.48;1.70;;;;;;;-146.27;91.20;82207.41;5022174;28;20037;-67
2023/08/21 03:55:32;;;;;;;7.95;1.70;;;;;;;-146.27;91.20;82217.47;5021253;28;20017;-69
2023/08/21 03:57:57;;;;;;;3.05;1.50;;;;;;;-146.27;91.45;82255.63;5023601;28;20032;-68
2023/08/21 04:00:23;;;;;;;5.80;2.35;;;;;;;-146.27;91.76;82227.50;5022138;28;20485;-69
2023/08/21 04:02:48;;;;;;;6.70;1.80;;;;;;;-146.27;91.79;82215.44;5020747;28;20028;-70
2023/08/21 04:05:13;;;;;;;9.57;2.15;;;;;;;-146.27;91.73;82237.53;5021729;28;20513;-69
2023/08/21 04:07:39;;;;;;;4.22;1.98;;;;;;;-146.27;91.88;82219.47;5021902;28;20064;-67
2023/08/21 04:10:05;;;;;;;6.97;1.92;;;;;;;-146.27;91.46;82243.56;5021994;28;20041;-68
2023/08/21 04:12:31;;;;;;;6.65;1.90;;;;;;;-146.27;91.66;82209.44;5022281;28;20036;-67
2023/08/21 04:14:56;;;;;;;2.78;1.50;;;;;;;-146.27;91.63;82257.63;5020703;28;20034;-67
2023/08/21 04:17:23;;;;;;;3.90;1.65;;;;;;;-146.27;91.85;82231.53;5027107;28;20439;-68
2023/08/21 04:19:48;;;;;;;7.72;1.73;;;;;;;-146.27;91.99;82267.69;5020326;28;20521;-66
2023/08/21 04:22:14;;;;;;;5.10;2.38;;;;;;;-146.27;92.21;82237.53;5019873;28;20116;-68
2023/08/21 04:24:41;;;;;;;5.72;1.80;;;;;;;-146.27;92.20;82247.59;5026010;28;20025;-68
2023/08/21 04:27:06;;;;;;;9.43;2.03;;;;;;;-146.27;91.79;82245.59;5023492;28;20025;-67
2023/08/21 04:29:31;;;;;;;3.10;1.73;;;;;;;-146.27;92.27;82241.56;5024618;28;20055;-68
2023/08/21 04:31:57;;;;;;;4.03;2.40;;;;;;;-146.27;92.04;82255.63;5026472;28;20033;-68
2023/08/21 04:34:22;;;;;;;7.55;2.05;;;;;;;-146.27;92.11;82263.66;5026342;28;20104;-66
2023/08/21 04:36:49;;;;;;;5.90;2.05;;;;;;;-146.27;92.02;82227.50;5028568;28;20025;-67
2023/08/21 04:39:14;;;;;;;5.13;1.95;;;;;;;-146.27;91.91;82225.50;5025946;28;20029;-69
2023/08/21 04:41:42;;;;;;;4.97;1.92;;;;;;;-146.27;92.12;82251.59;5026986;28;20507;-68
2023/08/21 04:44:07;;;;;;;6.22;2.10;;;;;;;-146.27;92.20;82243.56;5021011;28;20096;-68
2023/08/21 04:46:33;;;;;;;6.85;1.92;;;;;;;-146.27;92.36;82211.44;5014650;28;20108;-68
2023/08/21 04:48:58;;;;;;;7.32;2.08;;;;;;;-146.27;92.52;82249.59;5019839;28;20029;-68
2023/08/21 04:51:23;;;;;;;10.65;2.42;;;;;;;-146.27;92.39;82247.59;5022096;28;20163;-67
2023/08/21 04:53:48;;;;;;;7.65;2.08;;;;;;;-146.27;92.24;82235.53;5025566;28;20108;-68
2023/08/21 04:56:14;;;;;;;7.80;2.78;;;;;;;-146.27;92.41;82283.75;5018750;28;20092;-66
2023/08/21 04:58:39;;;;;;;5.10;2.40;;;;;;;-146.27;92.71;82253.63;5021328;28;20053;-68
2023/08/21 05:01:05;;;;;;;5.68;2.00;;;;;;;-146.27;93.21;82227.50;5021801;28;20549;-67
2023/08/21 05:03:30;;;;;;;9.43;3.20;;;;;;;-146.27;93.02;82275.72;5026603;28;20067;-68
2023/08/21 05:05:56;;;;;;;4.70;1.83;;;;;;;-146.27;93.24;82291.78;5025910;28;20025;-68
2023/08/21 05:08:26;;;;;;;8.60;2.08;;;;;;;-146.27;93.33;82279.72;5024916;28;20147;-70
2023/08/21 05:11:09;;;;;;;5.50;1.90;;;;;;;-146.27;93.20;82249.59;5023568;28;20497;-69
2023/08/21 05:13:34;;;;;;;17.23;3.40;;;;;;;-146.27;93.30;82285.75;5024289;28;20041;-69
2023/08/21 05:16:01;;;;;;;8.82;2.60;;;;;;;-146.27;94.11;82249.59;5025732;28;20052;-68
2023/08/21 05:18:28;;;;;;;8.88;2.60;;;;;;;-146.27;95.07;82191.34;5025918;28;20040;-69
2023/08/21 05:20:55;;;;;;;5.57;2.40;;;;;;;-146.27;94.55;82151.16;5026902;28;20681;-68
2023/08/21 05:23:20;;;;;;;8.65;3.00;;;;;;;-146.27;93.17;82143.13;5025184;28;20025;-69
2023/08/21 05:25:48;;;;;;;7.90;2.80;;;;;;;-146.27;93.54;82119.03;5026074;28;20037;-67
2023/08/21 05:28:13;;;;;;;11.52;2.70;;;;;;;-146.27;93.69;82106.97;5028116;28;20029;-70
2023/08/21 05:30:38;;;;;;;4.50;2.25;;;;;;;-146.27;93.53;82094.94;5017107;28;20026;-67
2023/08/21 05:33:04;;;;;;;5.57;2.53;;;;;;;-146.27;94.24;82117.03;5027217;28;20037;-67
2023/08/21 05:35:35;;;;;;;8.48;2.53;;;;;;;-146.27;94.27;82070.81;5026281;28;20126;-68
2023/08/21 05:38:01;;;;;;;11.82;2.85;;;;;;;-146.27;94.45;82102.97;5026531;28;20469;-67
2023/08/21 05:40:26;;;;;;;7.00;2.67;;;;;;;-146.27;94.55;82088.91;5026227;28;20035;-70
2023/08/21 05:42:52;;;;;;;14.15;3.40;;;;;;;-146.27;94.22;82062.78;5020649;28;20021;-68
2023/08/21 05:45:17;;;;;;;8.85;3.05;;;;;;;-146.27;94.55;82056.75;5024391;28;20481;-68
2023/08/21 05:47:42;;;;;;;14.02;2.80;;;;;;;-146.27;94.49;82060.78;5021721;28;20025;-70
2023/08/21 05:50:08;;;;;;;13.25;2.83;;;;;;;-146.27;94.91;82044.72;5025776;28;20389;-68
2023/08/21 05:52:34;;;;;;;5.45;2.75;;;;;;;-146.27;94.77;81978.44;5022505;28;20034;-68
2023/08/21 05:54:59;;;;;;;8.82;2.50;;;;;;;-146.27;94.49;81962.34;5026359;28;20551;-69
2023/08/21 05:57:25;;;;;;;12.38;2.70;;;;;;;-146.27;94.83;81944.28;5014804;28;20420;-69
2023/08/21 05:59:51;;;;;;;13.25;3.08;;;;;;;-146.27;94.64;81896.06;5022354;28;20029;-70
2023/08/21 06:02:16;;;;;;;8.38;2.70;;;;;;;-146.27;94.55;81853.91;5023786;28;20678;-74
2023/08/21 06:04:42;;;;;;;12.68;3.67;;;;;;;-146.27;94.58;81861.94;5028498;28;20347;-73
2023/08/21 06:07:08;;;;;;;8.77;2.97;;;;;;;-146.27;94.48;81793.66;5028706;28;20052;-74
2023/08/21 06:09:34;;;;;;;13.98;3.25;;;;;;;-146.27;94.30;81799.66;5026139;28;20362;-76
2023/08/21 06:12:03;;;;;;;10.18;3.10;;;;;;;-146.27;94.13;81761.50;5026361;28;20036;-75
2023/08/21 06:14:29;;;;;;;14.85;3.17;;;;;;;-146.27;93.71;81739.41;5027123;28;20494;-74
2023/08/21 06:17:02;;;;;;;10.13;2.88;;;;;;;-146.27;93.82;81727.38;5028725;28;20032;-74
2023/08/21 06:19:27;;;;;;;;;;;;;;;-146.27;93.71;81681.16;5027425;28;20159;-74
2023/08/21 06:21:54;;;;;;;10.57;3.70;;;;;;;-146.27;93.50;81636.97;5019732;28;19916;-74
2023/08/21 06:24:20;;;;;;;9.57;2.60;;;;;;;-146.27;93.31;81675.16;5030677;28;20079;-74
2023/08/21 06:26:45;;;;;;;6.85;2.38;;;;;;;-146.27;92.70;81649.03;5029219;28;20029;-74
2023/08/21 06:29:11;;;;;;;8.77;3.25;;;;;;;-146.27;93.17;81620.91;5027880;28;20103;-69
2023/08/21 06:31:36;;;;;;;12.88;2.70;;;;;;;-146.27;93.40;81572.72;5029343;28;20108;-69
2023/08/21 06:34:01;;;;;;;7.25;2.50;;;;;;;-146.27;93.21;81604.84;5030973;28;20060;-69
2023/08/21 06:36:27;;;;;;;12.40;3.22;;;;;;;-146.27;93.31;81556.66;5030797;28;20025;-69
2023/08/21 06:38:52;;;;;;;8.18;2.80;;;;;;;-146.27;93.08;81552.63;5025314;28;20017;-69
2023/08/21 06:41:17;;;;;;;10.70;2.85;;;;;;;-146.27;92.38;81496.41;5023232;28;20063;-74
2023/08/21 06:43:43;;;;;;;7.55;2.50;;;;;;;-146.27;92.31;81504.44;5028277;28;20033;-72
2023/08/21 06:46:08;;;;;;;10.60;2.80;;;;;;;-146.27;91.78;81484.34;5031300;28;20362;-73
2023/08/21 06:48:38;;;;;;;10.20;2.72;;;;;;;-146.27;91.47;81436.16;5031652;28;20106;-73
2023/08/21 06:51:04;;;;;;;9.02;2.50;;;;;;;-146.27;91.26;81414.06;5029303;28;20037;-73
2023/08/21 06:53:29;;;;;;;11.38;2.33;;;;;;;-146.27;91.07;81337.75;5029417;28;20041;-72
2023/08/21 06:55:55;;;;;;;7.25;2.38;;;;;;;-146.27;90.50;81365.84;5026337;28;20075;-72
2023/08/21 06:58:21;;;;;;;11.35;2.78;;;;;;;-146.27;89.99;81373.88;5027915;28;20412;-71
2023/08/21 07:00:46;;;;;;;8.73;2.40;;;;;;;-146.27;89.89;81279.50;5029723;28;20029;-73
2023/08/21 07:03:12;;;;;;;12.75;2.67;;;;;;;-146.27;89.66;81335.72;5028868;28;20029;-72
2023/08/21 07:05:37;;;;;;;11.82;2.50;;;;;;;-146.27;89.40;81315.66;5031076;28;20083;-76
2023/08/21 07:08:03;;;;;;;7.72;2.45;;;;;;;-146.27;89.58;81299.59;5029013;28;20049;-74
2023/08/21 07:10:29;;;;;;;8.85;2.10;;;;;;;-146.27;89.30;81289.53;5030935;28;20470;-74
2023/08/21 07:12:55;;;;;;;12.00;2.75;;;;;;;-146.27;89.15;81289.53;5031493;28;20026;-73
2023/08/21 07:15:20;;;;;;;10.68;2.63;;;;;;;-146.27;88.98;81255.41;5030795;28;20477;-75
2023/08/21 07:17:46;;;;;;;12.82;3.00;;;;;;;-146.27;89.02;81223.25;5029309;28;20455;-74
2023/08/21 07:20:11;;;;;;;15.38;2.63;;;;;;;-146.27;88.91;81255.41;5028523;28;20034;-74
2023/08/21 07:22:37;;;;;;;16.13;3.20;;;;;;;-146.27;88.89;81263.44;5031706;28;20029;-74
2023/08/21 07:25:04;;;;;;;11.15;2.83;;;;;;;-146.27;88.78;81233.31;5030792;28;20098;-73
2023/08/21 07:27:32;;;;;;;9.65;2.75;;;;;;;-146.27;88.46;81205.19;5029252;28;20056;-71
2023/08/21 07:29:58;;;;;;;13.18;2.30;;;;;;;-146.27;88.25;81195.16;5031032;28;20029;-73
2023/08/21 07:32:23;;;;;;;11.10;3.38;;;;;;;-146.27;87.62;81183.09;5031292;28;20075;-70
2023/08/21 07:34:54;;;;;;;10.60;2.80;;;;;;;-146.27;87.59;81161.00;5031230;28;20059;-71
2023/08/21 07:37:19;;;;;;;9.82;2.47;;;;;;;-146.27;87.53;81171.06;5013671;28;20537;-69
2023/08/21 07:39:44;;;;;;;9.90;2.55;;;;;;;-146.27;87.18;81134.91;5030323;28;20108;-70
2023/08/21 07:42:13;;;;;;;9.18;2.50;;;;;;;-146.27;86.92;81084.69;5028168;28;20029;-73
2023/08/21 07:44:39;;;;;;;8.25;2.33;;;;;;;-146.27;86.78;81074.66;5031175;28;20377;-72
2023/08/21 07:47:05;;;;;;;9.45;3.08;;;;;;;-146.27;86.64;81042.53;5029560;28;20033;-71
2023/08/21 07:49:31;;;;;;;14.45;3.72;;;;;;;-146.27;86.41;81030.47;5027889;28;20035;-72
2023/08/21 07:51:56;;;;;;;13.70;3.47;;;;;;;-146.27;86.40;81026.47;5030952;28;20105;-72
2023/08/21 07:54:22;;;;;;;14.00;3.22;;;;;;;-146.27;86.35;80970.25;5031046;28;20112;-71
2023/08/21 07:56:47;;;;;;;13.10;3.10;;;;;;;-146.27;86.64;80970.25;5031365;28;20264;-71
2023/08/21 07:59:13;;;;;;;13.40;2.97;;;;;;;-146.27;86.69;80958.19;5028170;28;20029;-70
2023/08/21 08:01:38;;;;;;;13.15;3.03;;;;;;;-146.27;86.42;80958.19;5027127;28;20445;-70
2023/08/21 08:04:04;;;;;;;16.52;3.13;;;;;;;-146.27;85.94;80865.81;5026111;28;20067;-70
2023/08/21 08:06:32;;;;;;;11.80;2.65;;;;;;;-146.27;85.48;80849.75;5026259;28;20145;-70
2023/08/21 08:08:57;;;;;;;11.10;2.88;;;;;;;-146.27;85.12;80839.72;5022206;28;20392;-71
2023/08/21 08:11:23;;;;;;;13.07;2.80;;;;;;;-146.27;84.21;80855.78;5029257;28;20112;-69
2023/08/21 08:13:48;;;;;;;12.70;2.92;;;;;;;-146.27;83.88;80825.66;5014109;28;20163;-70
2023/08/21 08:16:13;;;;;;;10.95;2.90;;;;;;;-146.27;83.45;80809.59;5027328;28;20029;-69
2023/08/21 08:18:39;;;;;;;14.75;3.50;;;;;;;-146.27;83.17;80723.25;5030137;28;20053;-70
2023/08/21 08:21:04;;;;;;;15.77;3.15;;;;;;;-146.27;83.38;80725.25;5030366;28;20067;-70
2023/08/21 08:23:30;;;;;;;8.90;2.35;;;;;;;-146.27;83.02;80729.28;5028004;28;20024;-71
2023/08/21 08:25:55;;;;;;;12.85;2.28;;;;;;;-146.27;82.09;80727.28;5030120;28;20456;-71
2023/08/21 08:28:20;;;;;;;7.50;2.28;;;;;;;-146.27;81.63;80667.03;5029430;28;20028;-68
2023/08/21 08:30:46;;;;;;;8.93;2.13;;;;;;;-146.27;80.77;80654.97;5026135;28;20135;-70
2023/08/21 08:33:11;;;;;;;12.38;2.63;;;;;;;-146.27;80.40;80604.78;5022850;28;20060;-70
2023/08/21 08:35:37;;;;;;;13.00;2.85;;;;;;;-146.27;80.62;80576.66;5027781;28;20025;-71
2023/08/21 08:38:02;;;;;;;15.05;2.22;;;;;;;-146.27;80.55;80556.59;5027855;28;20555;-71
2023/08/21 08:40:28;;;;;;;9.40;2.20;;;;;;;-146.27;80.56;80564.63;5029396;28;20029;-70
2023/08/21 08:42:53;;;;;;;10.60;2.42;;;;;;;-146.27;79.90;80528.47;5027280;28;20025;-69
2023/08/21 08:45:30;;;;;;;13.25;3.65;;;;;;;-146.27;80.04;80570.66;5028770;28;20033;-71
2023/08/21 08:47:57;;;;;;;10.38;1.90;;;;;;;-146.27;79.07;80514.44;5027733;28;20483;-70
2023/08/21 08:50:23;;;;;;;7.25;1.58;;;;;;;-146.27;78.41;80464.22;5030268;28;20535;-70
2023/08/21 08:52:49;;;;;;;6.68;1.70;;;;;;;-146.27;77.41;80440.13;5025094;28;20030;-70
2023/08/21 08:55:14;;;;;;;7.78;2.28;;;;;;;-146.27;76.03;80500.38;5027078;28;20062;-72
2023/08/21 08:57:40;;;;;;;7.70;1.42;;;;;;;-146.27;75.81;80458.22;5025206;28;20061;-70
2023/08/21 09:00:06;;;;;;;11.55;1.70;;;;;;;-146.27;76.38;80412.03;5024459;28;20090;-70
2023/08/21 09:02:31;;;;;;;4.97;1.70;;;;;;;-146.27;75.72;80375.88;5015053;28;20080;-70
2023/08/21 09:04:57;;;;;;;7.88;1.23;;;;;;;-146.27;74.37;80357.81;5016364;28;20402;-71
2023/08/21 09:07:22;;;;;;;8.88;1.60;;;;;;;-146.27;73.41;80371.88;5026103;28;20091;-70
2023/08/21 09:09:50;;;;;;;5.10;1.42;;;;;;;-146.27;73.38;80271.47;5029422;28;20056;-70
2023/08/21 09:12:16;;;;;;;8.88;1.60;;;;;;;-146.27;73.68;80217.28;5028140;28;20033;-71
2023/08/21 09:14:43;;;;;;;8.40;1.85;;;;;;;-146.27;73.05;80169.09;5029443;28;20485;-71
2023/08/21 09:17:08;;;;;;;7.38;1.35;;;;;;;-146.27;71.56;80175.13;5028759;28;20037;-70
2023/08/21 09:19:34;;;;;;;6.53;1.77;;;;;;;-146.27;71.06;80122.91;5026953;28;20029;-70
2023/08/21 09:22:09;;;;;;;5.50;1.30;;;;;;;-146.27;70.56;80116.88;5022485;28;20032;-71
2023/08/21 09:24:34;;;;;;;7.53;1.75;;;;;;;-146.27;70.73;80183.13;5025934;28;20022;-70
2023/08/21 09:27:01;;;;;;;5.55;1.38;;;;;;;-146.27;71.50;80205.22;5027985;28;20032;-71
2023/08/21 09:29:27;;;;;;;10.13;1.40;;;;;;;-146.27;70.95;80203.22;5027721;28;20087;-71
2023/08/21 09:31:56;;;;;;;4.15;1.52;;;;;;;-146.27;69.77;80140.97;5027558;28;20033;-69
2023/08/21 09:34:22;;;;;;;10.00;2.10;;;;;;;-146.27;70.09;80151.03;5028560;28;20083;-72
2023/08/21 09:36:55;;;;;;;8.25;1.50;;;;;;;-146.27;69.60;80066.69;5027622;28;20047;-73
2023/08/21 09:39:22;;;;;;;6.53;1.55;;;;;;;-146.27;68.80;80066.69;5024234;28;20036;-70
2023/08/21 09:41:57;;;;;;;3.63;1.20;;;;;;;-146.27;69.18;80038.59;5031235;28;20097;-71
2023/08/21 09:44:22;;;;;;;8.50;1.20;;;;;;;-146.27;68.36;79970.34;5025795;28;20083;-72
2023/08/21 09:46:49;;;;;;;8.20;1.45;;;;;;;-146.27;67.61;79948.25;5030357;28;20424;-69
2023/08/21 09:49:17;;;;;;;5.88;1.45;;;;;;;-146.27;66.88;79845.88;5030263;28;20033;-71
2023/08/21 09:51:44;;;;;;;5.25;0.98;;;;;;;-146.27;64.12;79807.72;5025015;28;20021;-71
2023/08/21 09:54:11;;;;;;;5.32;1.02;;;;;;;-146.27;65.24;79721.41;5025152;28;20776;-72
2023/08/21 09:56:37;;;;;;;7.65;1.55;;;;;;;-146.27;65.15;79681.25;5031433;28;20443;-71
2023/08/21 09:59:03;;;;;;;4.88;1.08;;;;;;;-146.27;61.51;79641.09;5029537;28;20102;-70
2023/08/21 10:01:33;;;;;;;4.40;0.93;;;;;;;-146.27;60.83;79689.28;5028717;28;20536;-70
2023/08/21 10:04:02;;;;;;;4.38;1.27;;;;;;;-146.27;62.16;79633.06;5032697;28;20025;-69
2023/08/21 10:06:29;;;;;;;3.80;1.33;;;;;;;-146.27;60.78;79675.22;5025378;28;20035;-70
2023/08/21 10:08:56;;;;;;;5.80;1.42;;;;;;;-146.27;60.62;79645.13;5031573;28;20107;-71
2023/08/21 10:11:22;;;;;;;6.45;1.15;;;;;;;-146.27;61.29;79604.97;5029887;28;20022;-71
2023/08/21 10:13:50;;;;;;;5.60;1.25;;;;;;;-146.27;60.25;79600.94;5032026;28;20037;-70
2023/08/21 10:16:17;;;;;;;4.30;1.30;;;;;;;-146.27;60.35;79534.72;5031248;28;20027;-70
2023/08/21 10:18:45;;;;;;;5.03;0.90;;;;;;;-146.27;61.59;79384.16;5030139;28;20029;-70
2023/08/21 10:21:18;;;;;;;3.83;0.90;;;;;;;-146.27;57.32;79368.09;5023342;28;20029;-69
2023/08/21 10:23:54;;;;;;;4.57;0.88;;;;;;;-146.27;53.83;79454.41;5021130;28;20034;-69
2023/08/21 10:26:21;;;;;;;5.70;1.27;;;;;;;-146.27;54.28;79532.69;5027613;28;20036;-70
2023/08/21 10:28:52;;;;;;;3.35;1.00;;;;;;;-146.27;55.73;79576.88;5031209;28;20503;-70
2023/08/21 10:31:34;;;;;;;3.70;1.00;;;;;;;-146.27;57.16;79677.22;5027646;28;20037;-70
2023/08/21 10:34:05;;;;;;;6.10;1.67;;;;;;;-146.27;59.03;79729.44;5031562;28;20473;-70
2023/08/21 10:36:59;;;;;;;5.28;1.42;;;;;;;-146.27;58.36;79576.88;5029836;28;20029;-70
2023/08/21 10:39:25;;;;;;;4.57;1.35;;;;;;;-146.27;56.98;79502.59;5022078;28;20046;-70
2023/08/21 10:41:55;;;;;;;3.92;0.90;;;;;;;-146.27;58.47;79348.03;5023999;28;20037;-70
2023/08/21 10:44:50;;;;;;;2.75;0.88;;;;;;;-146.27;55.17;79263.72;5029034;28;20025;-69
2023/08/21 10:47:20;;;;;;;2.60;0.88;;;;;;;-146.27;54.56;79143.28;5018874;28;20033;-69
2023/08/21 10:49:48;;;;;;;1.70;0.70;;;;;;;-146.27;53.07;79067.00;5030543;28;20042;-70
2023/08/21 10:52:19;;;;;;;2.35;1.00;;;;;;;-146.27;51.06;79018.84;5029812;28;20068;-70
2023/08/21 10:54:50;;;;;;;4.45;0.98;;;;;;;-146.27;56.08;78906.44;5026149;28;20056;-70
2023/08/21 10:57:16;;;;;;;3.78;1.25;;;;;;;-146.27;51.88;78938.56;5028181;28;20087;-70
2023/08/21 10:59:57;;;;;;;4.22;0.93;;;;;;;-146.27;55.90;78906.44;5030979;28;20470;-71
2023/08/21 11:02:32;;;;;;;2.20;0.85;;;;;;;-146.27;61.37;78806.09;5029502;28;20060;-71
2023/08/21 11:04:59;;;;;;;4.43;0.80;;;;;;;-146.27;57.24;78709.75;5029773;28;20078;-71
2023/08/21 11:07:26;;;;;;;5.35;1.15;;;;;;;-146.27;56.58;78771.97;5026401;28;20057;-72
2023/08/21 11:09:52;;;;;;;2.97;1.10;;;;;;;-146.27;53.02;78563.25;5021523;28;20033;-69
2023/08/21 11:12:20;;;;;;;3.70;1.00;;;;;;;-146.27;51.48;78511.06;5020165;28;20036;-70
2023/08/21 11:14:46;;;;;;;4.63;1.02;;;;;;;-146.27;49.09;78645.53;5029752;28;20087;-71